Time;durP1;ratioP1;P1;durP2;ratioP2;P2;SDS_P1;SDS_P2;PMS_P1;PMS_P2;Temp;Humidity;BMP_temperature;BMP_pressure;BME280_temperature;BME280_humidity;BME280_pressure;Samples;Min_cycle;Max_cycle;Signal;HPM_P1;HPM_P2
2023/08/12 00:08:44;;;;;;;20.20;10.00;;;;;;;16.84;71.77;101012.21;668122;1265;139676;-76
2023/08/12 00:23:49;;;;;;;25.30;10.50;;;;;;;16.51;73.87;101025.95;668192;1265;140460;-77
2023/08/12 00:38:53;;;;;;;17.20;8.40;;;;;;;16.10;73.70;101028.11;667719;1266;139673;-77
2023/08/12 00:53:58;;;;;;;18.40;8.60;;;;;;;16.05;74.70;101017.11;668653;1266;140394;-77
2023/08/12 01:09:05;;;;;;;18.10;11.00;;;;;;;16.36;74.20;101017.42;667979;1265;140250;-76
2023/08/12 01:24:08;;;;;;;25.60;10.60;;;;;;;16.21;73.97;101013.86;667646;1266;139966;-76
2023/08/12 01:39:12;;;;;;;17.30;9.30;;;;;;;16.17;72.85;101017.03;667264;1265;139840;-76
2023/08/12 01:54:15;;;;;;;27.40;13.10;;;;;;;16.37;72.13;101034.22;667708;1264;139533;-76
2023/08/12 02:09:19;;;;;;;17.90;10.10;;;;;;;16.30;72.88;101044.69;667332;1263;139868;-76
2023/08/12 02:24:22;;;;;;;15.20;9.80;;;;;;;16.44;72.48;101040.77;667593;1266;139663;-76
2023/08/12 02:39:25;;;;;;;20.60;12.10;;;;;;;16.56;71.54;101036.83;667204;1269;139196;-76
2023/08/12 02:54:31;;;;;;;16.60;11.10;;;;;;;16.46;72.90;101036.33;668022;1276;139719;-76
2023/08/12 03:09:35;;;;;;;15.00;9.90;;;;;;;16.59;73.91;101034.72;667517;1267;139553;-76
2023/08/12 03:24:38;;;;;;;14.70;8.60;;;;;;;16.56;73.70;101032.39;668254;1269;140549;-76
2023/08/12 03:39:42;;;;;;;19.70;10.40;;;;;;;16.71;73.54;101034.52;667941;1276;139400;-76
2023/08/12 03:54:45;;;;;;;14.30;8.50;;;;;;;16.69;74.06;101028.20;668006;1265;148389;-77
2023/08/12 04:09:50;;;;;;;14.10;7.30;;;;;;;16.82;74.53;101032.89;667498;1267;140503;-77
2023/08/12 04:24:53;;;;;;;13.50;7.00;;;;;;;16.95;75.35;101035.46;671605;1263;140013;-78
2023/08/12 04:39:57;;;;;;;16.20;8.00;;;;;;;17.22;75.72;101032.86;673775;1267;139545;-77
2023/08/12 04:55:01;;;;;;;12.10;8.50;;;;;;;17.55;77.07;101036.89;673778;1265;139338;-76
2023/08/12 05:10:05;;;;;;;12.30;9.40;;;;;;;18.28;76.02;101036.88;671241;1267;140098;-78
2023/08/12 05:25:08;;;;;;;18.10;9.50;;;;;;;18.81;75.63;101032.35;669029;1264;139377;-78
2023/08/12 05:40:12;;;;;;;119.10;48.90;;;;;;;20.91;74.76;101030.81;670286;1262;139450;-77
2023/08/12 05:55:15;;;;;;;18.80;10.80;;;;;;;24.33;69.14;101034.72;670085;1265;140309;-77
2023/08/12 06:10:18;;;;;;;29.40;17.80;;;;;;;25.90;65.60;101029.29;670660;1264;139989;-76
2023/08/12 06:25:21;;;;;;;19.00;10.10;;;;;;;28.81;60.11;101024.11;669027;1264;140792;-77
2023/08/12 06:40:26;;;;;;;14.90;9.40;;;;;;;30.51;56.09;101029.81;675774;1265;138370;-77
2023/08/12 06:55:29;;;;;;;7.50;3.20;;;;;;;31.52;50.68;101014.45;671915;1266;139635;-76
2023/08/12 07:10:32;;;;;;;7.20;2.30;;;;;;;31.49;45.99;101008.19;669850;1265;139439;-79
2023/08/12 07:25:36;;;;;;;14.60;6.60;;;;;;;31.05;42.71;100999.62;670349;1260;140028;-76
2023/08/12 07:40:40;;;;;;;6.70;2.80;;;;;;;31.20;43.44;101000.04;668154;1264;138419;-79
2023/08/12 07:55:44;;;;;;;5.40;2.70;;;;;;;31.49;43.17;100986.49;668179;1267;138610;-76
2023/08/12 08:10:48;;;;;;;5.30;2.60;;;;;;;31.94;41.48;100973.48;669197;1265;138299;-76
2023/08/12 08:25:51;;;;;;;7.10;2.70;;;;;;;32.02;41.74;100959.46;667703;1265;139446;-76
2023/08/12 08:40:57;;;;;;;16.10;6.80;;;;;;;32.56;41.71;100950.94;668322;1265;138728;-77
2023/08/12 08:56:01;;;;;;;6.60;2.10;;;;;;;32.19;41.28;100947.70;668684;1268;138894;-77
2023/08/12 09:11:06;;;;;;;6.20;2.30;;;;;;;32.75;41.31;100939.05;668987;1264;138966;-75
2023/08/12 09:26:28;;;;;;;6.30;2.00;;;;;;;32.60;42.02;100928.27;669720;1262;139316;-77
2023/08/12 09:41:32;;;;;;;4.70;2.00;;;;;;;32.47;42.28;100916.61;670765;1264;139654;-80
2023/08/12 09:56:40;;;;;;;6.10;2.30;;;;;;;32.67;42.80;100899.23;671475;1262;140529;-77
2023/08/12 10:11:45;;;;;;;7.30;2.20;;;;;;;32.75;42.07;100885.83;669159;1265;138138;-76
2023/08/12 10:26:52;;;;;;;6.00;2.60;;;;;;;32.51;42.53;100877.30;667844;1264;138541;-77
2023/08/12 10:41:56;;;;;;;3.50;2.10;;;;;;;33.45;42.37;100865.36;667501;1265;138311;-75
2023/08/12 10:57:03;;;;;;;5.30;2.10;;;;;;;32.69;42.25;100855.46;667763;1264;138842;-77
2023/08/12 11:12:09;;;;;;;7.20;2.00;;;;;;;33.36;42.64;100852.58;667479;1264;138608;-74
2023/08/12 11:27:14;;;;;;;2.80;1.60;;;;;;;32.95;42.32;100838.05;667397;1277;138460;-76
2023/08/12 11:42:17;;;;;;;6.10;2.30;;;;;;;32.95;42.95;100822.80;667324;1262;139067;-75
2023/08/12 11:57:30;;;;;;;3.90;2.20;;;;;;;33.65;43.20;100809.67;667362;1266;140308;-76
2023/08/12 12:12:35;;;;;;;3.10;1.90;;;;;;;33.13;43.33;100787.89;667421;1262;138989;-76
2023/08/12 12:27:40;;;;;;;4.60;1.80;;;;;;;33.27;43.60;100782.58;667678;1265;138669;-75
2023/08/12 12:42:44;;;;;;;2.90;1.80;;;;;;;34.31;43.76;100774.30;668669;1264;138769;-76
2023/08/12 12:57:48;;;;;;;3.10;2.30;;;;;;;33.99;43.64;100762.86;668534;1265;139208;-78
2023/08/12 13:12:52;;;;;;;5.60;1.90;;;;;;;34.17;42.91;100755.77;668094;1261;139399;-76
2023/08/12 13:27:57;;;;;;;9.20;2.00;;;;;;;33.70;43.22;100745.67;667711;1265;140062;-76
2023/08/12 13:43:01;;;;;;;4.90;2.30;;;;;;;33.88;43.42;100733.00;668436;1266;139103;-76
2023/08/12 13:58:05;;;;;;;7.70;3.40;;;;;;;33.48;43.60;100725.83;667978;1265;138510;-75
2023/08/12 14:13:09;;;;;;;5.90;2.40;;;;;;;34.24;43.78;100709.17;668125;1264;139346;-75
2023/08/12 14:28:13;;;;;;;6.60;2.10;;;;;;;33.58;44.22;100692.56;667830;1265;138236;-76
2023/08/12 14:43:17;;;;;;;4.30;2.30;;;;;;;33.87;44.83;100672.91;669033;1265;139850;-77
2023/08/12 14:58:21;;;;;;;4.70;2.00;;;;;;;33.56;43.87;100652.98;668208;1265;140424;-79
2023/08/12 15:13:25;;;;;;;11.70;2.80;;;;;;;33.12;43.99;100641.70;669129;1276;138426;-77
2023/08/12 15:28:29;;;;;;;5.80;2.30;;;;;;;33.40;44.60;100633.77;668218;1265;138756;-76
2023/08/12 15:43:34;;;;;;;8.40;2.60;;;;;;;33.18;44.50;100614.46;668412;1266;138744;-76
2023/08/12 15:58:38;;;;;;;4.10;2.60;;;;;;;32.34;44.65;100598.88;668992;1264;169811;-78
2023/08/12 16:13:43;;;;;;;6.50;2.40;;;;;;;32.22;44.68;100588.95;668519;1265;139482;-76
2023/08/12 16:28:47;;;;;;;6.60;3.00;;;;;;;31.80;45.34;100582.11;668144;1265;139014;-78
2023/08/12 16:43:51;;;;;;;9.10;3.40;;;;;;;31.10;46.20;100565.23;668436;1265;138878;-77
2023/08/12 16:58:55;;;;;;;10.80;5.30;;;;;;;30.13;47.91;100559.11;668384;1264;138881;-75
2023/08/12 17:13:59;;;;;;;8.30;3.80;;;;;;;29.44;49.22;100557.52;667865;1265;138709;-74
2023/08/12 17:29:03;;;;;;;8.00;3.40;;;;;;;28.74;50.68;100549.29;668475;1260;138529;-77
2023/08/12 17:44:07;;;;;;;10.60;2.80;;;;;;;28.20;52.01;100546.04;668111;1273;138638;-76
2023/08/12 17:59:11;;;;;;;14.50;5.60;;;;;;;27.81;52.36;100542.81;668536;1265;139466;-77
2023/08/12 18:14:16;;;;;;;15.30;3.40;;;;;;;27.12;53.75;100531.20;671517;1265;138970;-77
2023/08/12 18:29:19;;;;;;;17.50;5.50;;;;;;;26.70;54.80;100530.86;668844;1265;138637;-78
2023/08/12 18:44:23;;;;;;;20.40;5.60;;;;;;;26.26;56.05;100547.27;668062;1273;139614;-77
2023/08/12 18:59:28;;;;;;;28.50;5.70;;;;;;;26.01;56.62;100551.60;668322;1266;139210;-81
2023/08/12 19:14:33;;;;;;;17.30;4.60;;;;;;;25.86;57.48;100552.23;668015;1265;139491;-77
2023/08/12 19:29:40;;;;;;;15.00;6.10;;;;;;;25.79;57.26;100546.41;668212;1267;138408;-79
2023/08/12 19:44:50;;;;;;;27.60;8.40;;;;;;;25.53;58.32;100541.52;670055;1273;139926;-78
2023/08/12 19:59:54;;;;;;;23.30;7.70;;;;;;;25.67;57.81;100542.80;677773;1265;138994;-76
2023/08/12 20:14:58;;;;;;;13.90;5.30;;;;;;;25.56;58.12;100544.23;676233;1265;139466;-79
2023/08/12 20:30:03;;;;;;;17.40;5.40;;;;;;;25.45;58.13;100533.13;671055;1265;138940;-77
2023/08/12 20:45:12;;;;;;;;;;;;;;;25.16;59.27;100523.31;668719;1267;138894;-76
2023/08/12 21:00:16;;;;;;;10.60;4.40;;;;;;;25.16;59.83;100526.65;668489;1260;124619;-77
2023/08/12 21:15:22;;;;;;;14.40;4.90;;;;;;;25.39;59.04;100527.01;668252;1266;138694;-78
2023/08/12 21:30:27;;;;;;;10.10;4.00;;;;;;;24.91;60.36;100518.42;668501;1267;138971;-78
2023/08/12 21:45:31;;;;;;;8.70;4.10;;;;;;;24.81;60.38;100502.61;669456;1265;139009;-76
2023/08/12 22:00:36;;;;;;;10.00;4.30;;;;;;;24.69;61.14;100490.78;667747;1267;139231;-77
2023/08/12 22:15:39;;;;;;;6.60;2.70;;;;;;;24.84;60.26;100492.13;668737;1267;139040;-75
2023/08/12 22:30:43;;;;;;;5.70;2.50;;;;;;;25.05;59.26;100486.04;668123;1268;139026;-76
2023/08/12 22:45:49;;;;;;;8.30;2.70;;;;;;;25.21;58.77;100480.52;668112;1267;138968;-77
2023/08/12 23:00:53;;;;;;;6.80;2.70;;;;;;;25.27;58.43;100468.57;667801;1276;138053;-76
2023/08/12 23:15:56;;;;;;;9.50;2.80;;;;;;;25.25;58.49;100459.73;667837;1265;138331;-76
2023/08/12 23:30:59;;;;;;;6.80;2.70;;;;;;;25.19;58.28;100443.38;668468;1264;138995;-77
2023/08/12 23:46:03;;;;;;;6.80;3.00;;;;;;;24.98;58.86;100438.89;668384;1265;138678;-75
